Epr Properties (EPR) Latest Bloomsberg Price


Mffais Ranking #2624 Overall / #107 Industry
Industry: Reit

Number of Companies: 244 (Ranking #663 Overall/#35 Industry)
Inflow: $ 63,544 (K) (Ranking #1194 Overall/#67 Industry)
Outflow: $ -228,241 (K)
Mffais Flow: $ -164,697 (K) (Ranking #2624 Overall/#107 Industry)


Receive a FREE weekly executive review of stocks moving into the top 10, taking the top industy spot or moving up within their industry. Sent directly to your Inbox every Saturday. Sign up today and get last week's review immediately sent to you.

We value and respect your privacy. Please read our Terms and Conditions which states our firm commitment to your privacy. Your email address will not be shared with a third party, nor will it be sold or used for purposes other than subscription for the weekly review.

Owner CPOR Shares Action Qty Chg Invested (K) Total Current Value (K)
Edge Asset Management Inc 2016-09-30 764,744 Added More 83,702 $ 6,939 $ 63,404
Nuveen Asset Management Llc 2016-09-30 234,719 Added More 75,876 $ 6,290 $ 19,460
Martingale Asset Management L P 2016-09-30 75,906 Added More 62,499 $ 5,181 $ 6,293
Uniplan Investment Counsel Inc 2016-09-30 1,083,454 Added More 43,445 $ 3,602 $ 89,829
Robeco Institutional Asset Management B V 2016-09-30 42,532 New Holding 42,532 $ 3,526 $ 3,526
Three Peaks Capital Management Llc 2016-09-30 41,273 New Holding 41,273 $ 3,421 $ 3,421
Menta Capital Llc 2016-09-30 38,450 Added More 33,964 $ 2,815 $ 3,187
Capital Growth Management Lp 2016-09-30 150,000 Added More 30,000 $ 2,487 $ 12,436
Kempen Capital Management N V 2016-09-30 20,873 New Holding 20,873 $ 1,730 $ 1,730
State Of Tennessee Treasury Department 2016-09-30 90,000 Added More 20,000 $ 1,658 $ 7,461
Chicago Equity Partners Llc 2016-09-30 40,765 Added More 19,310 $ 1,600 $ 3,379
Crawford Investment Counsel Inc 2016-09-30 145,851 Added More 17,971 $ 1,489 $ 12,092
Shell Asset Management Co 2016-09-30 14,158 New Holding 14,158 $ 1,173 $ 1,173
Peak6 Investments L P 2016-09-30 80,500 Added More 12,800 $ 1,061 $ 6,674
Kcg Holdings Inc 2016-09-30 12,443 New Holding 12,443 $ 1,031 $ 1,031
Stevens Capital Management Lp 2016-09-30 10,845 New Holding 10,845 $ 899 $ 899
Cubist Systematic Strategies Llc 2016-09-30 10,427 New Holding 10,427 $ 864 $ 864
Global X Management Co Llc 2016-09-30 15,396 Added More 10,284 $ 852 $ 1,276
Dimensional Fund Advisors Lp 2016-09-30 821,640 Added More 9,944 $ 824 $ 68,122
Exane Derivatives 2016-09-30 9,885 New Holding 9,885 $ 819 $ 819
Rhumbline Advisers 2016-09-30 118,553 Added More 9,537 $ 790 $ 9,829
Hillsdale Investment Management Inc 2016-09-30 9,500 New Holding 9,500 $ 787 $ 787
New York State Common Retirement Fund 2016-09-30 136,700 Added More 8,900 $ 737 $ 11,333
Sei Investments Co 2016-09-30 14,020 Added More 8,213 $ 680 $ 1,162
Honeywell International Inc 2016-09-30 34,100 Added More 7,500 $ 621 $ 2,827
Comerica Bank 2016-09-30 129,981 Added More 6,881 $ 570 $ 10,776
Legal General Group Plc 2016-09-30 164,882 Added More 6,874 $ 569 $ 13,670
Driehaus Capital Management Llc 2016-09-30 40,660 Added More 6,721 $ 557 $ 3,371
Cornerstone Capital Management Holdings Llc 2016-09-30 43,922 Added More 6,695 $ 555 $ 3,641
Amp Capital Investors Ltd 2016-09-30 28,090 Added More 6,200 $ 514 $ 2,328
Vident Investment Advisory Llc 2016-09-30 6,060 New Holding 6,060 $ 502 $ 502
Tudor Investment Corp Et Al 2016-09-30 5,962 New Holding 5,962 $ 494 $ 494
Advantus Capital Management Inc 2016-09-30 70,870 Added More 5,000 $ 414 $ 5,875
Willingdon Wealth Management 2016-09-30 22,067 Added More 4,328 $ 358 $ 1,829
Fox Run Management L L C 2016-09-30 4,300 New Holding 4,300 $ 356 $ 356
Guggenheim Capital Llc 2016-09-30 196,557 Added More 3,830 $ 317 $ 16,296
Fifth Third Bancorp 2016-09-30 62,102 Added More 3,540 $ 293 $ 5,148
Meeder Asset Management Inc 2016-09-30 5,938 Added More 3,460 $ 286 $ 492
Mizuho Trust Banking Co Ltd 2016-09-30 15,717 Added More 3,456 $ 286 $ 1,303
Commerce Bank 2016-09-30 3,400 New Holding 3,400 $ 281 $ 281
Globeflex Capital L P 2016-09-30 3,367 New Holding 3,367 $ 279 $ 279
Aperio Group Llc 2016-09-30 13,441 Added More 3,296 $ 273 $ 1,114
Bank Of Hawaii 2016-09-30 3,050 New Holding 3,050 $ 252 $ 252
Wfg Advisors Lp 2016-09-30 3,006 New Holding 3,006 $ 249 $ 249
Cambridge Investment Research Advisors Inc 2016-09-30 2,761 New Holding 2,761 $ 228 $ 228
Ontario Teachers Pension Plan Board 2016-09-30 2,755 New Holding 2,755 $ 228 $ 228
Quadrature Capital Ltd 2016-09-30 2,700 New Holding 2,700 $ 223 $ 223
Gsa Capital Partners Llp 2016-09-30 2,626 New Holding 2,626 $ 217 $ 217
Sumitomo Mitsui Asset Management Company Ltd 2016-09-30 2,613 New Holding 2,613 $ 216 $ 216
A R T Advisors Llc 2016-09-30 2,600 New Holding 2,600 $ 215 $ 215
Kbc Group Nv 2016-09-30 26,473 Added More 2,507 $ 207 $ 2,194
Qs Investors Llc 2016-09-30 7,823 Added More 2,478 $ 205 $ 648
Raymond James Financial Services Advisors Inc 2016-09-30 13,361 Added More 2,176 $ 180 $ 1,107
Advisor Group Inc 2016-09-30 5,001 Added More 2,065 $ 171 $ 414
Blackrock Inc 2016-09-30 161,274 Added More 1,868 $ 154 $ 13,371
Capstone Asset Management Co 2016-09-30 67,315 Added More 1,853 $ 153 $ 5,581
Mutual Of America Capital Management Llc 2016-09-30 48,709 Added More 1,827 $ 151 $ 4,038
Nisa Investment Advisors Llc 2016-09-30 36,200 Added More 1,700 $ 140 $ 3,001
Bessemer Group Inc 2016-09-30 1,617 New Holding 1,617 $ 134 $ 134
Envestnet Asset Management Inc 2016-09-30 51,855 Added More 1,472 $ 122 $ 4,299
Msi Financial Services Inc 2016-09-30 5,683 Added More 1,327 $ 110 $ 471
Liberty Mutual Group Asset Management Inc 2016-09-30 28,752 Added More 1,271 $ 105 $ 2,383
Ropes Wealth Advisors Llc 2016-09-30 7,350 Added More 1,228 $ 101 $ 609
Fort Washington Investment Advisors Inc Oh 2016-09-30 14,315 Added More 1,200 $ 99 $ 1,186
Blackrock Investment Management Llc 2016-09-30 224,972 Added More 1,108 $ 91 $ 18,652
California State Teachers Retirement System 2016-09-30 138,342 Added More 1,100 $ 91 $ 11,469
World Asset Management Inc 2016-09-30 4,139 Added More 1,042 $ 86 $ 343
Thrivent Financial For Lutherans 2016-09-30 30,069 Added More 820 $ 67 $ 2,493
Cadence Capital Management Llc 2016-09-30 3,658 Added More 592 $ 49 $ 303
Elite Wealth Management Llc 2016-09-30 500 New Holding 500 $ 41 $ 41
Shinko Asset Management Co Ltd 2016-09-30 2,977,137 Added More 465 $ 38 $ 246,834
Oregon Public Employees Retirement Fund 2016-09-30 21,959 Added More 438 $ 36 $ 1,820
Mason Street Advisors Llc 2016-09-30 29,439 Added More 435 $ 36 $ 2,440
Integrated Wealth Management 2016-09-30 400 New Holding 400 $ 33 $ 33
Mitsubishi Ufj Kokusai Asset Management Co Ltd 2016-09-30 10,526 Added More 375 $ 31 $ 872
M T Bank Corp 2016-09-30 8,156 Added More 364 $ 30 $ 676
Next Financial Group Inc 2016-09-30 462 Added More 362 $ 30 $ 38
Creative Planning 2016-09-30 4,676 Added More 327 $ 27 $ 387
Zurcher Kantonalbank Zurich Cantonalbank 2016-09-30 22,536 Added More 290 $ 24 $ 1,868
Penserra Capital Management Llc 2016-09-30 665 Added More 272 $ 22 $ 55
Ls Investment Advisors Llc 2016-09-30 4,081 Added More 250 $ 20 $ 338
Independent Portfolio Consultants Inc 2016-09-30 660 Added More 250 $ 20 $ 54
Ifp Advisors Inc 2016-09-30 2,983 Added More 244 $ 20 $ 247
Umb Bank N A Mo 2016-09-30 6,453 Added More 150 $ 12 $ 535
Benjamin F Edwards Company Inc 2016-09-30 101 New Holding 101 $ 8 $ 8
State Treasurer State Of Michigan 2016-09-30 25,600 Added More 100 $ 8 $ 2,122
Hanseatic Management Services Inc 2016-09-30 307 Added More 94 $ 7 $ 25
Capital One National Association 2016-09-30 5,640 Added More 94 $ 7 $ 467
Fdx Advisors Inc 2016-09-30 7,010 Added More 92 $ 7 $ 581
Friedberg Investment Management 2016-09-30 47,350 Added More 70 $ 5 $ 3,925
Pacer Advisors Inc 2016-09-30 4,841 Added More 61 $ 5 $ 401
Wade G W Inc 2016-09-30 6,624 Added More 59 $ 4 $ 549
Beck Capital Management Llc 2016-09-30 3,707 Added More 11 $ 0 $ 307
Valley National Advisers Inc 2016-09-30 5 New Holding 5 $ 0 $ 0
Weaver C Barksdale Associates Inc 2016-09-30 32 Added More 5 $ 0 $ 2
Amica Retiree Medical Trust 2016-09-30 693 No Change 0 $ 0 $ 57
American National Insurance Co Tx 2016-09-30 45,080 No Change 0 $ 0 $ 3,737
First Midwest Bank Trust Division 2016-09-30 7,101 No Change 0 $ 0 $ 588
Duncker Streett Co Inc 2016-09-30 430 No Change 0 $ 0 $ 35
Amica Pension Fund Board Of Trustees 2016-09-30 4,372 No Change 0 $ 0 $ 362
Amica Mutual Insurance Co 2016-09-30 5,901 No Change 0 $ 0 $ 489
Moody National Bank Trust Division 2016-09-30 5,140 No Change 0 $ 0 $ 426
Pinnacle Financial Partners Inc 2016-09-30 7,610 No Change 0 $ 0 $ 630
Howe Rusling Inc 2016-09-30 110 No Change 0 $ 0 $ 9
First Hawaiian Bank 2016-09-30 3,000 No Change 0 $ 0 $ 248
Trust Co Of Vermont 2016-09-30 80 No Change 0 $ 0 $ 6
Rmr Advisors Llc 2016-09-30 97,950 No Change 0 $ 0 $ 8,121
Bailard Inc 2016-09-30 3,718 No Change 0 $ 0 $ 308
Alpine Woods Capital Investors Llc 2016-09-30 9,012 No Change 0 $ 0 $ 747
Cable Hill Partners Llc 2016-09-30 90 No Change 0 $ 0 $ 7
Sterling Capital Management Llc 2016-09-30 32,000 No Change 0 $ 0 $ 2,653
Texas Yale Capital Corp 2016-09-30 20,655 No Change 0 $ 0 $ 1,712
North Star Investment Management Corp 2016-09-30 50 No Change 0 $ 0 $ 4
Alpha Windward Llc 2016-09-30 62 No Change 0 $ 0 $ 5
Nn Investment Partners Holdings N V 2016-09-30 12,378 No Change 0 $ 0 $ 1,026
State Of Alaska Department Of Revenue 2016-09-30 24,570 No Change 0 $ 0 $ 2,037
Armbruster Capital Management Inc 2016-09-30 97 No Change 0 $ 0 $ 8
Proficio Capital Partners Llc 2016-09-30 477 No Change 0 $ 0 $ 39
Quadrant Capital Group Llc 2016-09-30 218 No Change 0 $ 0 $ 18
Baird Financial Group Inc 2016-09-30 7,601 No Change 0 $ 0 $ 630
Parkside Financial Bank Trust 2016-09-30 375 No Change 0 $ 0 $ 31
Supplemental Annuity Collective Trust Of Nj 2016-09-30 7,000 No Change 0 $ 0 $ 580
Nj State Employees Deferred Compensation Plan 2016-09-30 30,000 No Change 0 $ 0 $ 2,487
American National Registered Investment Advisor Inc 2016-09-30 5,440 No Change 0 $ 0 $ 451
Central Trust Co 2016-09-30 260 No Change 0 $ 0 $ 21
Arizona State Retirement System 2016-09-30 26,400 No Change 0 $ 0 $ 2,188
Chase Investment Counsel Corp 2016-09-30 3,140 No Change 0 $ 0 $ 260
Telemus Capital Llc 2016-09-30 15,000 No Change 0 $ 0 $ 1,243
Vantage Investment Advisors Llc 2016-09-30 220 No Change 0 $ 0 $ 18
Community Bank Of Raymore 2016-09-30 15,120 No Change 0 $ 0 $ 1,253
Kistler-Tiffany Companies Llc 2016-09-30 0 Sold All -6 $ -0 $ 0
Plante Moran Financial Advisors Llc 2016-09-30 62 Sold Some -11 $ -0 $ 5
Hgk Asset Management Inc 2016-09-30 4,144 Sold Some -14 $ -1 $ 343
Northwestern Mutual Investment Management Company Llc 2016-09-30 10,957 Sold Some -23 $ -1 $ 908
First Personal Financial Services 2016-09-30 170 Sold Some -25 $ -2 $ 14
Schnieders Capital Management Llc 2016-09-30 18,685 Sold Some -25 $ -2 $ 1,549
Morgan Dempsey Capital Management Llc 2016-09-30 0 Sold All -30 $ -2 $ 0
Keeley Asset Management Corp 2016-09-30 22,000 Sold Some -30 $ -2 $ 1,824
Assetmark Inc 2016-09-30 144 Sold Some -38 $ -3 $ 11
Retirement Systems Of Alabama 2016-09-30 81,992 Sold Some -50 $ -4 $ 6,797
Ladenburg Thalmann Financial Services Inc 2016-09-30 8,280 Sold Some -82 $ -6 $ 686
Oakbrook Investments Llc 2016-09-30 3,200 Sold Some -100 $ -8 $ 265
Patten Group Inc 2016-09-30 300 Sold Some -100 $ -8 $ 24
Financial Management Professionals Inc 2016-09-30 0 Sold All -125 $ -10 $ 0
Texas Permanent School Fund 2016-09-30 48,470 Sold Some -160 $ -13 $ 4,018
American International Group Inc 2016-09-30 122,944 Sold Some -256 $ -21 $ 10,193
Commonwealth Equity Services Inc 2016-09-30 14,843 Sold Some -257 $ -21 $ 1,230
Utah Retirement Systems 2016-09-30 14,069 Sold Some -300 $ -24 $ 1,166
1st Global Advisors Inc 2016-09-30 6,189 Sold Some -312 $ -25 $ 513
Usa Financial Portformulas Corp 2016-09-30 3,233 Sold Some -344 $ -28 $ 268
Synovus Financial Corp 2016-09-30 0 Sold All -400 $ -33 $ 0
Westport Resources Management Inc 2016-09-30 97 Sold Some -414 $ -34 $ 8
Sumitomo Mitsui Trust Holdings Inc 2016-09-30 45,368 Sold Some -428 $ -35 $ 3,761
Blackrock Japan Co Ltd 2016-09-30 3,166 Sold Some -439 $ -36 $ 262
Ibm Retirement Fund 2016-09-30 5,924 Sold Some -445 $ -36 $ 491
United Capital Financial Advisers Llc 2016-09-30 14,836 Sold Some -450 $ -37 $ 1,230
Nomura Asset Management Co Ltd 2016-09-30 39,570 Sold Some -460 $ -38 $ 3,280
Diam Co Ltd 2016-09-30 151,088 Sold Some -479 $ -39 $ 12,526
New York State Teachers Retirement System 2016-09-30 124,216 Sold Some -500 $ -41 $ 10,298
Sheaff Brock Investment Advisors Llc 2016-09-30 3,533 Sold Some -517 $ -42 $ 292
Stifel Financial Corp 2016-09-30 14,522 Sold Some -582 $ -48 $ 1,204
Sandler Capital Management 2016-09-30 6,615 Sold Some -645 $ -53 $ 548
Forum Securities Ltd 2016-09-30 23,430 Sold Some -700 $ -58 $ 1,942
Affinity Investment Advisors Llc 2016-09-30 4,288 Sold Some -770 $ -63 $ 355
Dorsey Whitney Trust Co Llc 2016-09-30 6,502 Sold Some -931 $ -77 $ 539
Cetera Advisors Llc 2016-09-30 2,850 Sold Some -1,012 $ -83 $ 236
Keybank National Association Oh 2016-09-30 29,174 Sold Some -1,029 $ -85 $ 2,418
Strs Ohio 2016-09-30 93,525 Sold Some -1,064 $ -88 $ 7,754
Teachers Retirement System Of The State Of Kentucky 2016-09-30 15,592 Sold Some -1,100 $ -91 $ 1,292
Tower Research Capital Llc Trc 2016-09-30 2,306 Sold Some -1,238 $ -102 $ 191
Teachers Insurance Annuity Association Of America 2016-09-30 66,550 Sold Some -1,419 $ -117 $ 5,517
Advisors Asset Management Inc 2016-09-30 96,416 Sold Some -1,460 $ -121 $ 7,993
Invictus Rg 2016-09-30 1,642 Sold Some -1,516 $ -125 $ 136
Checchi Capital Advisers Llc 2016-09-30 0 Sold All -1,606 $ -133 $ 0
Profund Advisors Llc 2016-09-30 11,352 Sold Some -1,843 $ -152 $ 941
New Jersey Better Educational Savings Trust 2016-09-30 15,000 Sold Some -2,000 $ -165 $ 1,243
Croft-Leominster Inc 2016-09-30 2,852 Sold Some -2,000 $ -165 $ 236
Teacher Retirement System Of Texas 2016-09-30 6,820 Sold Some -2,081 $ -172 $ 565
Avalon Advisors Llc 2016-09-30 155,421 Sold Some -2,449 $ -203 $ 12,885
Pensionfund Sabic 2016-09-30 9,300 Sold Some -2,500 $ -207 $ 771
Proshare Advisors Llc 2016-09-30 19,241 Sold Some -2,520 $ -208 $ 1,595
Timber Hill Llc 2016-09-30 0 Sold All -2,642 $ -219 $ 0
Rafferty Asset Management Llc 2016-09-30 4,041 Sold Some -2,764 $ -229 $ 335
Us Bancorp De 2016-09-30 30,449 Sold Some -2,804 $ -232 $ 2,524
Squarepoint Ops Llc 2016-09-30 3,858 Sold Some -2,816 $ -233 $ 319
First Mercantile Trust Co 2016-09-30 670 Sold Some -2,950 $ -244 $ 55
Hancock Holding Co 2016-09-30 0 Sold All -2,990 $ -247 $ 0
Tower Square Investment Management Llc 2016-09-30 16,507 Sold Some -3,067 $ -254 $ 1,368
Pnc Financial Services Group Inc 2016-09-30 6,804 Sold Some -3,187 $ -264 $ 564
Swiss National Bank 2016-09-30 101,988 Sold Some -3,500 $ -290 $ 8,455
Girard Securities Inc 2016-09-30 0 Sold All -3,725 $ -308 $ 0
Jane Street Group Llc 2016-09-30 13,211 Sold Some -3,840 $ -318 $ 1,095
West Family Investments Inc 2016-09-30 0 Sold All -4,400 $ -364 $ 0
First Allied Advisory Services Inc 2016-09-30 84,453 Sold Some -4,438 $ -367 $ 7,001
Choate Investment Advisors 2016-09-30 0 Sold All -4,714 $ -390 $ 0
Hsbc Holdings Plc 2016-09-30 5,739 Sold Some -4,887 $ -405 $ 475
State Of New Jersey Common Pension Fund D 2016-09-30 1,986,500 Sold Some -5,000 $ -414 $ 164,700
Oppenheimer Co Inc 2016-09-30 191,560 Sold Some -5,050 $ -418 $ 15,882
Panagora Asset Management Inc 2016-09-30 17,590 Sold Some -5,077 $ -420 $ 1,458
Presima Inc 2016-09-30 71,100 Sold Some -5,100 $ -422 $ 5,894
Barings Llc 2016-09-30 0 Sold All -5,600 $ -464 $ 0
Pensionfund Dsm Netherlands 2016-09-30 23,300 Sold Some -7,000 $ -580 $ 1,931
Regions Financial Corp 2016-09-30 20,985 Sold Some -7,161 $ -593 $ 1,739
Nationwide Fund Advisors 2016-09-30 229,217 Sold Some -7,500 $ -621 $ 19,004
Westpac Banking Corp 2016-09-30 93,349 Sold Some -7,970 $ -660 $ 7,739
Ramsey Quantitative Systems 2016-09-30 0 Sold All -8,302 $ -688 $ 0
Walleye Trading Llc 2016-09-30 2,400 Sold Some -8,512 $ -705 $ 198
Employees Retirement System Of Texas 2016-09-30 113,000 Sold Some -9,000 $ -746 $ 9,368
Bluecrest Capital Management Ltd 2016-09-30 0 Sold All -9,339 $ -774 $ 0
Marshall Wace Llp 2016-09-30 0 Sold All -9,600 $ -795 $ 0
Dynamic Advisors Solutions Llc 2016-09-30 48,822 Sold Some -9,876 $ -818 $ 4,047
Cutler Group Lp 2016-09-30 4,400 Sold Some -11,254 $ -933 $ 364
Connor Clark Lunn Investment Management Ltd 2016-09-30 0 Sold All -12,350 $ -1,023 $ 0
Dupont Capital Management Corp 2016-09-30 41,230 Sold Some -12,975 $ -1,075 $ 3,418
Columbia Partners L L C Investment Management 2016-09-30 389,392 Sold Some -14,618 $ -1,211 $ 32,284
Aew Capital Management L P 2016-09-30 45,000 Sold Some -15,000 $ -1,243 $ 3,730
Toscafund Asset Management Llp 2016-09-30 0 Sold All -15,000 $ -1,243 $ 0
Sg Americas Securities Llc 2016-09-30 7,485 Sold Some -15,417 $ -1,278 $ 620
Parametric Portfolio Associates Llc 2016-09-30 122,669 Sold Some -16,519 $ -1,369 $ 10,170
Teachers Advisors Inc 2016-09-30 256,679 Sold Some -16,818 $ -1,394 $ 21,281
Eagle Asset Management Inc 2016-09-30 40,056 Sold Some -17,278 $ -1,432 $ 3,321
Mirae Asset Global Investments Co Ltd 2016-09-30 0 Sold All -17,850 $ -1,479 $ 0
Raymond James Associates 2016-09-30 99,620 Sold Some -19,132 $ -1,586 $ 8,259
Putnam Investments Llc 2016-09-30 71,102 Sold Some -19,580 $ -1,623 $ 5,895
Rothschild Asset Management Inc 2016-09-30 34,329 Sold Some -20,823 $ -1,726 $ 2,846
Wasatch Advisors Inc 2016-09-30 73,944 Sold Some -21,327 $ -1,768 $ 6,130
Systematic Financial Management Lp 2016-09-30 0 Sold All -25,023 $ -2,074 $ 0
Pear Tree Advisors Inc 2016-06-30 53,410 Sold Some -26,000 $ -2,097 $ 4,309
Kennedy Capital Management Inc 2016-09-30 0 Sold All -25,896 $ -2,147 $ 0
Mesirow Financial Investment Management - Equity Management 2016-09-30 0 Sold All -29,681 $ -2,460 $ 0
Meritage Portfolio Management 2016-09-30 0 Sold All -45,677 $ -3,787 $ 0
Scout Investments Inc 2016-09-30 637,819 Sold Some -48,240 $ -3,999 $ 52,881
Tiaa Cref Trust Co Fsb Mo 2016-09-30 46,451 Sold Some -50,939 $ -4,223 $ 3,851
Laurion Capital Management Lp 2016-09-30 0 Sold All -56,000 $ -4,642 $ 0
Mariner Wealth Advisors Llc 2016-09-30 168,110 Sold Some -62,877 $ -5,213 $ 13,938
Pioneer Investment Management Inc 2016-09-30 0 Sold All -78,144 $ -6,478 $ 0
Opus Capital Group Llc 2016-09-30 0 Sold All -82,585 $ -6,847 $ 0
Emerald Acquisition Ltd 2016-09-30 147,813 Sold Some -92,576 $ -7,675 $ 12,255
William Blair Investment Management Llc 2016-09-30 194,958 Sold Some -96,679 $ -8,015 $ 16,163
Echo Street Capital Management Llc 2016-09-30 0 Sold All -101,957 $ -8,453 $ 0
Cardinal Capital Management Llc Ct 2016-09-30 235,667 Sold Some -106,469 $ -8,827 $ 19,539
Osterweis Capital Management Inc 2016-09-30 801,561 Sold Some -204,810 $ -16,980 $ 66,457
Pzena Investment Management Llc 2016-09-30 0 Sold All -288,275 $ -23,900 $ 0
Northern Trust Corp 2016-09-30 868,385 Sold Some -885,717 $ -73,434 $ 71,997